createdAt,value
2018-11-05T00:01:03.248Z,30.83
2018-11-05T00:03:32.978Z,30.71
2018-11-05T00:06:02.965Z,30.79
2018-11-05T00:08:32.739Z,30.83
2018-11-05T00:11:17.318Z,30.72
2018-11-05T00:13:47.062Z,30.81
2018-11-05T00:16:16.942Z,30.61
2018-11-05T00:18:46.694Z,30.67
2018-11-05T00:21:16.827Z,30.59
2018-11-05T00:23:46.517Z,30.82
2018-11-05T00:26:16.282Z,30.74
2018-11-05T00:28:46.035Z,30.64
2018-11-05T00:31:15.643Z,30.64
2018-11-05T00:33:45.316Z,30.74
2018-11-05T00:36:15.164Z,30.58
2018-11-05T00:38:44.936Z,30.60
2018-11-05T00:41:14.714Z,30.51
2018-11-05T00:43:44.234Z,30.59
2018-11-05T00:46:14.559Z,30.40
2018-11-05T00:48:44.286Z,30.37
2018-11-05T00:51:14.014Z,30.47
2018-11-05T00:53:43.687Z,30.31
2018-11-05T00:56:13.519Z,30.27
2018-11-05T00:58:43.251Z,30.23
2018-11-05T01:01:13.283Z,30.39
2018-11-05T01:03:42.959Z,30.30
2018-11-05T01:06:12.716Z,30.29
2018-11-05T01:08:42.874Z,30.25
2018-11-05T01:11:12.638Z,30.05
2018-11-05T01:13:42.419Z,30.28
2018-11-05T01:16:12.226Z,30.05
2018-11-05T01:18:42.661Z,30.31
2018-11-05T01:21:12.427Z,30.09
2018-11-05T01:23:42.199Z,30.05
2018-11-05T01:26:11.906Z,29.98
2018-11-05T01:28:41.614Z,30.09
2018-11-05T01:31:11.684Z,29.93
2018-11-05T01:33:41.388Z,29.62
2018-11-05T01:36:11.196Z,29.68
2018-11-05T01:38:41.626Z,29.75
2018-11-05T01:41:11.251Z,29.60
2018-11-05T01:43:41.037Z,29.70
2018-11-05T01:46:10.811Z,29.62
2018-11-05T01:48:40.451Z,29.70
2018-11-05T01:51:10.558Z,29.68
2018-11-05T01:53:40.202Z,29.61
2018-11-05T01:56:10.011Z,29.51
2018-11-05T01:58:39.599Z,29.58
2018-11-05T02:01:09.246Z,29.49
2018-11-05T02:03:39.516Z,29.43
2018-11-05T02:06:09.327Z,29.25
2018-11-05T02:08:39.049Z,29.38
2018-11-05T02:11:08.781Z,29.29
2018-11-05T02:13:38.512Z,29.24
2018-11-05T02:16:08.565Z,29.20
2018-11-05T02:18:38.330Z,29.21
2018-11-05T02:21:08.225Z,29.02
2018-11-05T02:23:37.966Z,29.10
2018-11-05T02:26:07.783Z,29.14
2018-11-05T02:28:37.569Z,29.20
2018-11-05T02:31:07.327Z,29.02
2018-11-05T02:33:37.103Z,28.94
2018-11-05T02:36:06.779Z,28.92
2018-11-05T02:38:36.518Z,28.79
2018-11-05T02:41:06.770Z,28.88
2018-11-05T02:43:36.815Z,28.92
2018-11-05T02:46:06.534Z,28.95
2018-11-05T02:48:36.237Z,28.76
2018-11-05T02:51:06.152Z,28.76
2018-11-05T02:53:35.918Z,28.71
2018-11-05T02:56:06.083Z,28.77
2018-11-05T02:58:35.896Z,28.61
2018-11-05T03:01:05.698Z,28.63
2018-11-05T03:03:35.588Z,28.47
2018-11-05T03:06:05.428Z,28.47
2018-11-05T03:08:35.207Z,28.34
2018-11-05T03:11:04.877Z,28.44
2018-11-05T03:13:34.624Z,28.34
2018-11-05T03:16:04.665Z,28.44
2018-11-05T03:18:34.344Z,28.50
2018-11-05T03:21:04.151Z,28.30
2018-11-05T03:23:33.885Z,28.22
2018-11-05T03:26:03.891Z,28.23
2018-11-05T03:28:33.930Z,28.17
2018-11-05T03:31:03.683Z,28.13
2018-11-05T03:33:33.371Z,28.24
2018-11-05T03:36:03.294Z,28.07
2018-11-05T03:38:33.100Z,28.15
2018-11-05T03:41:02.848Z,28.08
2018-11-05T03:43:32.927Z,28.02
2018-11-05T03:46:02.706Z,28.03
2018-11-05T03:48:32.506Z,27.97
2018-11-05T03:51:02.324Z,27.93
2018-11-05T03:53:32.192Z,27.89
2018-11-05T03:56:01.979Z,27.84
2018-11-05T03:58:31.787Z,27.83
2018-11-05T04:01:01.354Z,27.73
2018-11-05T04:03:31.249Z,27.72
2018-11-05T04:06:00.907Z,27.69
2018-11-05T04:08:30.864Z,27.52
2018-11-05T04:11:00.534Z,27.50
2018-11-05T04:13:30.266Z,27.57
2018-11-05T04:16:00.040Z,27.64
2018-11-05T04:18:29.764Z,27.54
2018-11-05T04:20:59.878Z,27.52
2018-11-05T04:23:29.685Z,27.53
2018-11-05T04:25:59.359Z,27.44
2018-11-05T04:28:29.039Z,27.38
2018-11-05T04:30:58.777Z,27.41
2018-11-05T04:33:28.489Z,27.35
2018-11-05T04:35:58.703Z,27.44
2018-11-05T04:38:28.417Z,27.45
2018-11-05T04:40:58.151Z,27.41
2018-11-05T04:43:27.823Z,27.31
2018-11-05T04:45:57.822Z,27.30
2018-11-05T04:48:27.587Z,27.32
2018-11-05T04:50:57.677Z,27.36
2018-11-05T04:53:27.987Z,27.33
2018-11-05T04:55:57.775Z,27.15
2018-11-05T04:58:27.638Z,27.21
2018-11-05T05:00:57.396Z,27.07
2018-11-05T05:03:27.373Z,27.09
2018-11-05T05:05:57.039Z,26.99
2018-11-05T05:08:27.466Z,26.97
2018-11-05T05:10:57.174Z,26.91
2018-11-05T05:13:27.020Z,26.90
2018-11-05T05:15:56.831Z,26.82
2018-11-05T05:18:26.389Z,26.85
2018-11-05T05:20:56.456Z,26.96
2018-11-05T05:23:26.254Z,26.92
2018-11-05T05:25:55.972Z,26.92
2018-11-05T05:28:25.828Z,26.76
2018-11-05T05:30:55.648Z,26.87
2018-11-05T05:33:25.434Z,26.78
2018-11-05T05:35:55.166Z,26.66
2018-11-05T05:38:24.951Z,26.71
2018-11-05T05:40:55.082Z,26.77
2018-11-05T05:43:24.666Z,26.77
2018-11-05T05:45:54.426Z,26.74
2018-11-05T05:48:24.222Z,26.52
2018-11-05T05:50:57.005Z,26.57
2018-11-05T05:53:26.817Z,26.58
2018-11-05T05:55:56.949Z,26.64
2018-11-05T05:58:27.219Z,26.56
2018-11-05T06:00:57.090Z,26.61
2018-11-05T06:03:26.973Z,26.57
2018-11-05T06:05:56.846Z,26.57
2018-11-05T06:08:27.208Z,26.51
2018-11-05T06:10:56.951Z,26.48
2018-11-05T06:13:27.122Z,26.40
2018-11-05T06:15:56.904Z,26.43
2018-11-05T06:18:26.660Z,26.46
2018-11-05T06:20:56.403Z,26.35
2018-11-05T06:23:26.173Z,26.36
2018-11-05T06:25:56.255Z,26.32
2018-11-05T06:28:26.022Z,26.28
2018-11-05T06:30:55.911Z,26.28
2018-11-05T06:33:25.656Z,26.19
2018-11-05T06:35:55.432Z,26.29
2018-11-05T06:38:25.314Z,26.25
2018-11-05T06:40:55.058Z,26.16
2018-11-05T06:43:25.107Z,26.20
2018-11-05T06:45:54.819Z,26.10
2018-11-05T06:48:25.132Z,26.11
2018-11-05T06:50:54.798Z,26.14
2018-11-05T06:53:24.590Z,26.11
2018-11-05T06:55:54.363Z,26.13
2018-11-05T06:58:24.734Z,26.04
2018-11-05T07:00:54.501Z,26.04
2018-11-05T07:03:24.254Z,25.99
2018-11-05T07:05:54.047Z,25.94
2018-11-05T07:08:24.207Z,25.96
2018-11-05T07:10:53.943Z,25.95
2018-11-05T07:13:23.721Z,25.96
2018-11-05T07:15:53.663Z,25.96
2018-11-05T07:18:23.789Z,25.90
2018-11-05T07:20:53.386Z,25.72
2018-11-05T07:23:23.295Z,25.82
2018-11-05T07:25:53.424Z,25.76
2018-11-05T07:28:23.376Z,25.70
2018-11-05T07:30:53.162Z,25.74
2018-11-05T07:33:23.272Z,25.63
2018-11-05T07:35:53.051Z,25.68
2018-11-05T07:38:23.014Z,25.70
2018-11-05T07:40:53.173Z,25.59
2018-11-05T07:43:22.918Z,25.60
2018-11-05T07:45:52.691Z,25.57
2018-11-05T07:48:22.291Z,25.43
2018-11-05T07:50:52.091Z,25.44
2018-11-05T07:53:22.275Z,25.61
2018-11-05T07:55:52.854Z,25.58
2018-11-05T07:58:22.930Z,25.55
2018-11-05T08:00:58.719Z,25.50
2018-11-05T08:03:28.718Z,25.57
2018-11-05T08:05:59.171Z,25.58
2018-11-05T08:08:28.987Z,25.52
2018-11-05T08:10:58.989Z,25.53
2018-11-05T08:13:28.804Z,25.44
2018-11-05T08:15:58.571Z,25.33
2018-11-05T08:18:28.616Z,25.33
2018-11-05T08:20:58.364Z,25.37
2018-11-05T08:23:28.072Z,25.37
2018-11-05T08:25:57.904Z,25.39
2018-11-05T08:28:28.023Z,25.33
2018-11-05T08:30:57.877Z,25.36
2018-11-05T08:33:27.723Z,25.24
2018-11-05T08:35:57.420Z,25.26
2018-11-05T08:38:27.882Z,25.30
2018-11-05T08:40:57.451Z,25.27
2018-11-05T08:43:27.203Z,25.12
2018-11-05T08:45:56.974Z,25.15
2018-11-05T08:48:26.759Z,25.19
2018-11-05T08:50:56.423Z,25.18
2018-11-05T08:53:26.122Z,25.23
2018-11-05T08:55:55.943Z,25.23
2018-11-05T08:58:25.492Z,25.23
2018-11-05T09:00:55.305Z,25.19
2018-11-05T09:03:25.066Z,25.18
2018-11-05T09:05:54.879Z,25.17
2018-11-05T09:08:24.962Z,25.16
2018-11-05T09:10:54.997Z,25.18
2018-11-05T09:13:24.511Z,25.12
2018-11-05T09:15:54.432Z,25.15
2018-11-05T09:18:24.611Z,25.11
2018-11-05T09:20:54.854Z,25.12
2018-11-05T09:23:24.548Z,25.11
2018-11-05T09:25:54.322Z,24.87
2018-11-05T09:28:24.203Z,24.91
2018-11-05T09:30:53.988Z,24.96
2018-11-05T09:33:23.738Z,25.00
2018-11-05T09:35:53.486Z,24.95
2018-11-05T09:38:23.359Z,24.98
2018-11-05T09:40:53.106Z,24.94
2018-11-05T09:43:23.103Z,24.98
2018-11-05T09:45:52.787Z,24.94
2018-11-05T09:48:22.439Z,24.89
2018-11-05T09:50:52.222Z,24.93
2018-11-05T09:53:21.899Z,24.98
2018-11-05T09:55:51.682Z,24.95
2018-11-05T09:58:21.422Z,24.92
2018-11-05T10:00:51.054Z,24.94
2018-11-05T10:03:20.949Z,24.80
2018-11-05T10:05:50.847Z,24.78
2018-11-05T10:08:20.520Z,24.68
2018-11-05T10:10:50.640Z,24.74
2018-11-05T10:13:20.443Z,24.75
2018-11-05T10:15:50.183Z,24.78
2018-11-05T10:18:19.867Z,24.72
2018-11-05T10:20:49.538Z,24.61
2018-11-05T10:23:19.278Z,24.65
2018-11-05T10:25:49.262Z,24.63
2018-11-05T10:28:19.039Z,24.61
2018-11-05T10:30:48.719Z,24.66
2018-11-05T10:33:18.482Z,24.65
2018-11-05T10:35:53.259Z,24.61
2018-11-05T10:38:23.241Z,24.68
2018-11-05T10:40:53.188Z,24.71
2018-11-05T10:43:22.978Z,24.75
2018-11-05T10:45:52.855Z,24.73
2018-11-05T10:48:22.991Z,24.66
2018-11-05T10:50:52.773Z,24.63
2018-11-05T10:53:22.998Z,24.64
2018-11-05T10:55:52.719Z,24.60
2018-11-05T10:58:22.406Z,24.65
2018-11-05T11:00:57.070Z,24.53
2018-11-05T11:03:30.848Z,24.51
2018-11-05T11:06:00.613Z,24.44
2018-11-05T11:08:30.461Z,24.49
2018-11-05T11:11:00.167Z,24.55
2018-11-05T11:13:30.910Z,24.53
2018-11-05T11:16:00.766Z,24.41
2018-11-05T11:18:30.917Z,24.55
2018-11-05T11:21:00.676Z,24.56
2018-11-05T11:23:30.604Z,24.58
2018-11-05T11:26:00.963Z,24.60
2018-11-05T11:28:30.821Z,24.59
2018-11-05T11:31:01.019Z,24.60
2018-11-05T11:33:30.912Z,24.54
2018-11-05T11:36:00.654Z,24.47
2018-11-05T11:38:30.739Z,24.41
2018-11-05T11:41:00.562Z,24.43
2018-11-05T11:43:30.806Z,24.44
2018-11-05T11:46:00.623Z,24.46
2018-11-05T11:48:30.727Z,24.46
2018-11-05T11:51:00.946Z,24.43
2018-11-05T11:53:31.057Z,24.33
2018-11-05T11:56:00.650Z,24.35
2018-11-05T11:58:30.391Z,24.34
2018-11-05T12:01:00.318Z,24.35
2018-11-05T12:03:30.146Z,24.30
2018-11-05T12:05:59.907Z,24.31
2018-11-05T12:08:29.755Z,24.24
2018-11-05T12:10:59.703Z,24.21
2018-11-05T12:13:29.519Z,24.28
2018-11-05T12:15:59.301Z,24.35
2018-11-05T12:18:29.169Z,24.27
2018-11-05T12:20:58.936Z,24.16
2018-11-05T12:23:28.808Z,24.25
2018-11-05T12:25:58.563Z,24.31
2018-11-05T12:28:28.500Z,24.28
2018-11-05T12:30:58.338Z,24.22
2018-11-05T12:33:28.083Z,24.25
2018-11-05T12:35:57.859Z,24.32
2018-11-05T12:38:27.691Z,24.33
2018-11-05T12:40:57.431Z,24.29
2018-11-05T12:43:27.325Z,24.29
2018-11-05T12:45:57.191Z,24.29
2018-11-05T12:48:27.000Z,24.22
2018-11-05T12:50:56.825Z,24.20
2018-11-05T12:53:26.707Z,24.24
2018-11-05T12:55:56.527Z,24.27
2018-11-05T12:58:26.683Z,24.18
2018-11-05T13:00:56.576Z,24.16
2018-11-05T13:03:26.471Z,24.17
2018-11-05T13:05:56.504Z,24.17
2018-11-05T13:08:26.615Z,24.19
2018-11-05T13:10:56.447Z,24.24
2018-11-05T13:13:26.328Z,24.23
2018-11-05T13:15:56.495Z,24.20
2018-11-05T13:18:26.334Z,24.20
2018-11-05T13:20:56.380Z,24.14
2018-11-05T13:23:31.488Z,24.21
2018-11-05T13:26:01.411Z,24.12
2018-11-05T13:28:31.356Z,24.14
2018-11-05T13:31:01.020Z,24.15
2018-11-05T13:33:31.071Z,23.43
2018-11-05T13:36:01.623Z,22.89
2018-11-05T13:38:31.361Z,22.79
2018-11-05T13:41:02.063Z,22.79
2018-11-05T13:43:32.286Z,22.81
2018-11-05T13:46:02.400Z,22.85
2018-11-05T13:48:32.523Z,22.86
2018-11-05T13:51:01.807Z,22.85
2018-11-05T13:53:31.610Z,22.84
2018-11-05T13:56:01.687Z,22.87
2018-11-05T13:58:31.547Z,22.89
2018-11-05T14:01:01.483Z,22.90
2018-11-05T14:03:31.366Z,22.90
2018-11-05T14:06:01.153Z,22.90
2018-11-05T14:08:30.861Z,22.88
2018-11-05T14:11:00.647Z,22.85
2018-11-05T14:13:30.784Z,22.82
2018-11-05T14:16:00.606Z,22.85
2018-11-05T14:18:31.476Z,22.88
2018-11-05T14:21:01.295Z,22.89
2018-11-05T14:23:31.487Z,22.91
2018-11-05T14:26:01.514Z,22.91
2018-11-05T14:28:32.868Z,22.88
2018-11-05T14:31:03.052Z,22.87
2018-11-05T14:33:33.485Z,22.65
2018-11-05T14:36:03.447Z,22.59
2018-11-05T14:38:33.622Z,22.59
2018-11-05T14:41:03.463Z,22.76
2018-11-05T14:43:33.471Z,22.85
2018-11-05T14:46:03.328Z,22.89
2018-11-05T14:48:33.528Z,22.90
2018-11-05T14:51:03.676Z,22.92
2018-11-05T14:53:33.390Z,22.85
2018-11-05T14:56:03.159Z,22.84
2018-11-05T14:58:33.338Z,22.86
2018-11-05T15:01:03.452Z,22.86
2018-11-05T15:03:33.471Z,22.80
2018-11-05T15:06:03.391Z,22.50
2018-11-05T15:08:33.203Z,22.72
2018-11-05T15:11:03.741Z,22.73
2018-11-05T15:13:33.585Z,22.58
2018-11-05T15:16:03.378Z,22.45
2018-11-05T15:18:33.292Z,22.37
2018-11-05T15:21:03.160Z,22.64
2018-11-05T15:23:33.399Z,22.68
2018-11-05T15:26:03.490Z,22.76
2018-11-05T15:28:33.310Z,22.83
2018-11-05T15:31:03.091Z,22.87
2018-11-05T15:33:32.784Z,22.87
2018-11-05T15:36:02.851Z,22.91
2018-11-05T15:38:32.911Z,22.91
2018-11-05T15:41:02.964Z,22.92
2018-11-05T15:43:33.230Z,22.95
2018-11-05T15:46:03.275Z,22.96
2018-11-05T15:48:32.970Z,22.97
2018-11-05T15:51:02.678Z,22.98
2018-11-05T15:53:33.565Z,22.98
2018-11-05T15:56:03.341Z,22.99
2018-11-05T15:58:33.935Z,23.00
2018-11-05T16:01:04.253Z,23.00
2018-11-05T16:03:34.455Z,23.00
2018-11-05T16:06:04.274Z,23.01
2018-11-05T16:08:34.070Z,22.96
2018-11-05T16:11:03.738Z,22.98
2018-11-05T16:13:33.841Z,22.93
2018-11-05T16:16:03.589Z,22.99
2018-11-05T16:18:35.457Z,23.00
2018-11-05T16:21:05.631Z,23.01
2018-11-05T16:23:35.734Z,23.00
2018-11-05T16:26:06.218Z,23.02
2018-11-05T16:28:35.984Z,23.02
2018-11-05T16:31:05.999Z,23.03
2018-11-05T16:33:36.663Z,23.03
2018-11-05T16:36:07.175Z,23.01
2018-11-05T16:38:37.208Z,22.90
2018-11-05T16:41:07.458Z,22.97
2018-11-05T16:43:37.531Z,22.76
2018-11-05T16:46:08.039Z,22.95
2018-11-05T16:48:38.366Z,23.05
2018-11-05T16:51:08.057Z,22.99
2018-11-05T16:53:37.902Z,22.89
2018-11-05T16:56:07.647Z,23.01
2018-11-05T16:58:37.400Z,22.99
2018-11-05T17:01:07.362Z,22.95
2018-11-05T17:03:36.887Z,22.97
2018-11-05T17:06:06.846Z,22.98
2018-11-05T17:08:36.615Z,22.93
2018-11-05T17:11:06.798Z,23.18
2018-11-05T17:13:36.809Z,23.28
2018-11-05T17:16:06.903Z,23.28
2018-11-05T17:18:36.962Z,23.32
2018-11-05T17:21:07.059Z,23.31
2018-11-05T17:23:36.864Z,23.34
2018-11-05T17:26:06.747Z,23.32
2018-11-05T17:28:36.466Z,23.28
2018-11-05T17:31:07.202Z,23.31
2018-11-05T17:33:37.028Z,23.30
2018-11-05T17:36:06.601Z,23.32
2018-11-05T17:38:36.941Z,23.32
2018-11-05T17:41:07.312Z,23.34
2018-11-05T17:43:37.216Z,23.33
2018-11-05T17:46:07.084Z,23.34
2018-11-05T17:48:37.630Z,23.29
2018-11-05T17:51:08.418Z,23.33
2018-11-05T17:53:38.214Z,23.31
2018-11-05T17:56:08.007Z,23.31
2018-11-05T17:58:37.689Z,23.31
2018-11-05T18:01:07.472Z,23.31
2018-11-05T18:03:37.187Z,23.29
2018-11-05T18:06:10.482Z,23.27
2018-11-05T18:08:40.375Z,23.30
2018-11-05T18:11:10.495Z,23.28
2018-11-05T18:13:40.271Z,23.28
2018-11-05T18:16:10.155Z,23.27
2018-11-05T18:18:40.091Z,23.27
2018-11-05T18:21:10.157Z,23.27
2018-11-05T18:23:40.096Z,23.27
2018-11-05T18:26:09.913Z,23.26
2018-11-05T18:28:39.695Z,23.22
2018-11-05T18:31:09.928Z,23.22
2018-11-05T18:33:39.670Z,23.23
2018-11-05T18:36:09.325Z,23.24
2018-11-05T18:38:39.100Z,23.26
2018-11-05T18:41:08.989Z,23.26
2018-11-05T18:43:38.960Z,23.27
2018-11-05T18:46:09.020Z,23.28
2018-11-05T18:48:38.723Z,23.29
2018-11-05T18:51:08.471Z,23.29
2018-11-05T18:53:38.251Z,23.29
2018-11-05T18:56:08.007Z,23.31
2018-11-05T18:58:37.769Z,23.30
2018-11-05T19:01:07.477Z,23.29
2018-11-05T19:03:37.339Z,23.28
2018-11-05T19:06:07.134Z,23.30
2018-11-05T19:08:36.925Z,23.29
2018-11-05T19:11:06.805Z,23.31
2018-11-05T19:13:36.485Z,23.32
2018-11-05T19:16:06.239Z,23.27
2018-11-05T19:18:36.110Z,23.26
2018-11-05T19:21:06.127Z,23.27
2018-11-05T19:23:35.891Z,23.27
2018-11-05T19:26:05.943Z,23.28
2018-11-05T19:28:35.780Z,23.27
2018-11-05T19:31:05.856Z,23.25
2018-11-05T19:33:35.775Z,23.29
2018-11-05T19:36:06.919Z,23.27
2018-11-05T19:38:37.074Z,23.29
2018-11-05T19:41:06.938Z,23.28
2018-11-05T19:43:36.690Z,23.28
2018-11-05T19:46:06.813Z,23.27
2018-11-05T19:48:36.607Z,23.28
2018-11-05T19:51:06.715Z,23.28
2018-11-05T19:53:36.623Z,23.28
2018-11-05T19:56:07.552Z,23.28
2018-11-05T19:58:37.397Z,23.25
2018-11-05T20:01:07.254Z,23.27
2018-11-05T20:03:37.087Z,23.29
2018-11-05T20:06:06.895Z,23.28
2018-11-05T20:08:36.668Z,23.27
2018-11-05T20:11:06.667Z,23.26
2018-11-05T20:13:36.683Z,23.27
2018-11-05T20:16:06.384Z,23.24
2018-11-05T20:18:36.174Z,23.27
2018-11-05T20:21:06.139Z,23.28
2018-11-05T20:23:36.001Z,23.26
2018-11-05T20:26:05.779Z,23.26
2018-11-05T20:28:36.480Z,23.27
2018-11-05T20:31:06.922Z,23.28
2018-11-05T20:33:36.659Z,23.27
2018-11-05T20:36:06.655Z,23.29
2018-11-05T20:38:36.494Z,23.28
2018-11-05T20:41:06.292Z,23.30
2018-11-05T20:43:36.928Z,23.28
2018-11-05T20:46:06.711Z,23.30
2018-11-05T20:48:36.649Z,23.29
2018-11-05T20:51:06.519Z,23.28
2018-11-05T20:53:36.142Z,23.27
2018-11-05T20:56:05.535Z,23.29
2018-11-05T20:58:35.067Z,23.27
2018-11-05T21:01:04.837Z,23.27
2018-11-05T21:03:34.554Z,23.25
2018-11-05T21:06:04.399Z,23.23
2018-11-05T21:08:34.185Z,23.24
2018-11-05T21:11:03.883Z,23.22
2018-11-05T21:13:33.591Z,23.23
2018-11-05T21:16:03.379Z,23.21
2018-11-05T21:18:33.146Z,23.22
2018-11-05T21:21:03.571Z,23.21
2018-11-05T21:23:33.311Z,23.24
2018-11-05T21:26:03.099Z,23.26
2018-11-05T21:28:32.972Z,23.27
2018-11-05T21:31:02.654Z,23.27
2018-11-05T21:33:32.449Z,23.24
2018-11-05T21:36:02.197Z,23.19
2018-11-05T21:38:31.974Z,23.21
2018-11-05T21:41:01.747Z,23.18
2018-11-05T21:43:31.553Z,23.16
2018-11-05T21:46:01.413Z,23.17
2018-11-05T21:48:31.181Z,23.18
2018-11-05T21:51:00.922Z,23.15
2018-11-05T21:53:30.694Z,23.16
2018-11-05T21:56:00.874Z,23.14
2018-11-05T21:58:31.579Z,23.14
2018-11-05T22:01:01.353Z,23.12
2018-11-05T22:03:31.145Z,23.12
2018-11-05T22:06:00.878Z,23.12
2018-11-05T22:08:30.646Z,23.12
2018-11-05T22:11:00.390Z,23.11
2018-11-05T22:13:30.277Z,23.08
2018-11-05T22:16:00.048Z,23.09
2018-11-05T22:18:29.791Z,23.07
2018-11-05T22:20:59.463Z,23.09
2018-11-05T22:23:29.267Z,23.08
2018-11-05T22:25:59.023Z,23.08
2018-11-05T22:28:28.796Z,23.08
2018-11-05T22:30:58.572Z,23.07
2018-11-05T22:33:28.417Z,23.08
2018-11-05T22:35:58.196Z,23.08
2018-11-05T22:38:28.051Z,23.06
2018-11-05T22:40:57.807Z,23.05
2018-11-05T22:43:27.585Z,23.05
2018-11-05T22:45:57.302Z,23.06
2018-11-05T22:48:27.038Z,23.04
2018-11-05T22:50:56.834Z,23.05
2018-11-05T22:53:26.659Z,23.05
2018-11-05T22:55:56.458Z,23.04
2018-11-05T22:58:26.220Z,23.03
2018-11-05T23:01:00.887Z,23.05
2018-11-05T23:03:31.968Z,23.04
2018-11-05T23:06:01.724Z,23.03
2018-11-05T23:08:31.497Z,23.02
2018-11-05T23:11:01.299Z,23.03
2018-11-05T23:13:31.055Z,23.02
2018-11-05T23:16:00.763Z,23.04
2018-11-05T23:18:30.526Z,23.03
2018-11-05T23:21:00.243Z,23.03
2018-11-05T23:23:30.018Z,23.01
2018-11-05T23:25:59.867Z,23.02
2018-11-05T23:28:29.639Z,23.01
2018-11-05T23:30:59.487Z,22.99
2018-11-05T23:33:29.330Z,23.00
2018-11-05T23:35:59.074Z,23.02
2018-11-05T23:38:28.878Z,22.99
2018-11-05T23:40:58.768Z,22.99
2018-11-05T23:43:28.536Z,22.98
2018-11-05T23:45:58.203Z,22.98
2018-11-05T23:48:28.057Z,22.96
2018-11-05T23:50:57.890Z,22.97
2018-11-05T23:53:27.606Z,22.98
2018-11-05T23:55:57.470Z,22.98
2018-11-05T23:58:27.226Z,22.98
